Lum, Michigan
Current Conditions -  °F | °C
As of 11:13 PM on Tuesday 27 Jan 2015 (Local Time) from KD95 Reporting Station
Clear Clear  
Wind Chill: -14°   Ceiling: Unl
Heat Index: -14°   Visibility: 10mi
Dew Point: -16°   Wind: 0mph
Humidity: 92%   Direction: NA
Pressure: 30.21"   Gusts: NA
Location:  43.0581°N, 83.167°W
Report Text: KD95 280413Z AUTO 00000KT 10SM CLR M14/M15 A3021 RMK AO2 T11441155
Loading
Personal Weather Stations






























Interactive Weather Map New forecast layout! Learn more

10-Day Weather Forecast

Advertisements
Track Severe Weather on mobile